createdAt,value
2022-12-26T00:02:00.491Z,100306.28
2022-12-26T00:04:48.639Z,100311.53
2022-12-26T00:07:14.283Z,100309.81
2022-12-26T00:09:40.718Z,100311.59
2022-12-26T00:12:07.321Z,100304.63
2022-12-26T00:14:33.833Z,100303.72
2022-12-26T00:17:00.271Z,100299.41
2022-12-26T00:19:26.738Z,100308.13
2022-12-26T00:21:53.266Z,100306.34
2022-12-26T00:24:19.768Z,100303.81
2022-12-26T00:26:46.205Z,100302.13
2022-12-26T00:29:12.695Z,100308.25
2022-12-26T00:31:39.185Z,100303.81
2022-12-26T00:34:05.708Z,100311.63
2022-12-26T00:36:34.043Z,100309.03
2022-12-26T00:39:02.357Z,100298.56
2022-12-26T00:41:29.612Z,100307.34
2022-12-26T00:43:56.656Z,100295.16
2022-12-26T00:46:23.615Z,100297.75
2022-12-26T00:48:50.156Z,100298.63
2022-12-26T00:51:17.238Z,100301.22
2022-12-26T00:53:43.966Z,100307.34
2022-12-26T00:56:10.848Z,100306.44
2022-12-26T00:58:37.831Z,100322.03
2022-12-26T01:01:22.102Z,100329.91
2022-12-26T01:03:49.843Z,100324.66
2022-12-26T01:06:16.963Z,100327.22
2022-12-26T01:08:43.900Z,100324.53
2022-12-26T01:11:13.447Z,100320.25
2022-12-26T01:13:39.978Z,100323.75
2022-12-26T01:16:07.184Z,100338.59
2022-12-26T01:18:34.702Z,100346.31
2022-12-26T01:21:08.077Z,100356.75
2022-12-26T01:23:34.587Z,100351.47
2022-12-26T01:26:18.182Z,100365.41
2022-12-26T01:28:45.942Z,100361.94
2022-12-26T01:31:12.453Z,100355.06
2022-12-26T01:33:38.960Z,100357.59
2022-12-26T01:36:05.861Z,100371.63
2022-12-26T01:38:32.343Z,100384.63
2022-12-26T01:41:17.297Z,100377.72
2022-12-26T01:43:47.756Z,100375.91
2022-12-26T01:46:16.467Z,100373.25
2022-12-26T01:48:43.034Z,100374.25
2022-12-26T01:51:09.675Z,100375.97
2022-12-26T01:53:39.596Z,100370.81
2022-12-26T01:56:11.371Z,100368.28
2022-12-26T01:58:41.509Z,100374.38
2022-12-26T02:01:09.706Z,100379.66
2022-12-26T02:03:57.864Z,100370.91
2022-12-26T02:06:24.350Z,100362.25
2022-12-26T02:08:50.991Z,100352.69
2022-12-26T02:11:36.162Z,100370.13
2022-12-26T02:14:07.260Z,100380.59
2022-12-26T02:16:36.237Z,100388.44
2022-12-26T02:19:06.673Z,100392.81
2022-12-26T02:21:33.051Z,100394.56
2022-12-26T02:24:18.230Z,100390.25
2022-12-26T02:27:18.630Z,100388.41
2022-12-26T02:29:45.030Z,100384.03
2022-12-26T02:32:34.324Z,100389.25
2022-12-26T02:35:10.131Z,100394.50
2022-12-26T02:37:50.333Z,100394.34
2022-12-26T02:40:28.938Z,100386.44
2022-12-26T02:43:02.059Z,100397.72
2022-12-26T02:46:02.419Z,100405.59
2022-12-26T02:48:35.159Z,100409.25
2022-12-26T02:51:49.803Z,100400.53
2022-12-26T02:54:47.392Z,100405.72
2022-12-26T02:57:38.168Z,100417.91
2022-12-26T03:00:32.773Z,100411.72
2022-12-26T03:03:26.355Z,100405.63
2022-12-26T03:06:14.049Z,100404.00
2022-12-26T03:09:08.062Z,100414.47
2022-12-26T03:11:59.610Z,100403.09
2022-12-26T03:14:48.525Z,100412.66
2022-12-26T03:17:30.601Z,100406.59
2022-12-26T03:20:01.693Z,100401.31
2022-12-26T03:22:51.401Z,100396.06
2022-12-26T03:25:48.621Z,100398.69
2022-12-26T03:28:15.622Z,100403.09
2022-12-26T03:30:51.865Z,100412.66
2022-12-26T03:33:45.656Z,100415.28
2022-12-26T03:36:15.867Z,100421.41
2022-12-26T03:38:57.719Z,100427.56
2022-12-26T03:41:54.976Z,100418.81
2022-12-26T03:45:16.073Z,100411.00
2022-12-26T03:48:22.871Z,100408.41
2022-12-26T03:51:13.805Z,100415.38
2022-12-26T03:54:06.086Z,100415.47
2022-12-26T03:57:14.686Z,100432.06
2022-12-26T04:00:10.201Z,100432.03
2022-12-26T04:02:57.876Z,100418.97
2022-12-26T04:05:45.129Z,100425.06
2022-12-26T04:08:38.448Z,100428.59
2022-12-26T04:11:24.887Z,100425.03
2022-12-26T04:14:15.524Z,100422.47
2022-12-26T04:17:10.956Z,100431.25
2022-12-26T04:20:05.508Z,100440.00
2022-12-26T04:23:01.714Z,100454.88
2022-12-26T04:25:55.155Z,100456.63
2022-12-26T04:28:41.279Z,100452.28
2022-12-26T04:31:36.190Z,100456.66
2022-12-26T04:34:26.309Z,100461.03
2022-12-26T04:37:17.631Z,100454.09
2022-12-26T04:40:08.063Z,100456.75
2022-12-26T04:42:54.489Z,100448.94
2022-12-26T04:45:22.959Z,100460.28
2022-12-26T04:48:09.627Z,100469.00
2022-12-26T04:50:36.119Z,100462.94
2022-12-26T04:53:02.571Z,100464.69
2022-12-26T04:55:31.573Z,100469.97
2022-12-26T04:57:58.449Z,100462.16
2022-12-26T05:00:28.094Z,100457.81
2022-12-26T05:03:18.795Z,100458.72
2022-12-26T05:06:07.833Z,100453.50
2022-12-26T05:08:57.670Z,100460.47
2022-12-26T05:11:25.244Z,100458.75
2022-12-26T05:13:53.284Z,100457.91
2022-12-26T05:16:38.875Z,100465.75
2022-12-26T05:19:28.657Z,100462.28
2022-12-26T05:22:13.933Z,100468.41
2022-12-26T05:25:00.303Z,100459.81
2022-12-26T05:27:58.897Z,100460.66
2022-12-26T05:30:25.923Z,100452.91
2022-12-26T05:33:11.078Z,100455.50
2022-12-26T05:35:38.377Z,100462.53
2022-12-26T05:38:05.716Z,100463.47
2022-12-26T05:40:32.395Z,100470.41
2022-12-26T05:42:58.849Z,100466.06
2022-12-26T05:45:25.287Z,100473.91
2022-12-26T05:47:58.391Z,100475.59
2022-12-26T05:50:24.881Z,100472.13
2022-12-26T05:52:51.361Z,100474.75
2022-12-26T05:55:17.894Z,100484.31
2022-12-26T05:57:44.294Z,100468.63
2022-12-26T06:00:11.405Z,100464.25
2022-12-26T06:02:38.066Z,100460.75
2022-12-26T06:05:04.874Z,100454.66
2022-12-26T06:07:31.341Z,100461.66
2022-12-26T06:09:57.792Z,100454.66
2022-12-26T06:12:24.278Z,100450.28
2022-12-26T06:14:50.734Z,100449.47
2022-12-26T06:17:17.261Z,100438.19
2022-12-26T06:19:46.930Z,100443.44
2022-12-26T06:22:13.673Z,100470.47
2022-12-26T06:24:40.273Z,100476.59
2022-12-26T06:27:06.894Z,100492.31
2022-12-26T06:29:33.421Z,100476.66
2022-12-26T06:31:59.951Z,100473.09
2022-12-26T06:34:27.650Z,100482.63
2022-12-26T06:36:55.530Z,100476.50
2022-12-26T06:39:22.993Z,100474.78
2022-12-26T06:41:49.456Z,100473.91
2022-12-26T06:44:18.660Z,100486.13
2022-12-26T06:46:45.719Z,100479.22
2022-12-26T06:49:12.305Z,100487.09
2022-12-26T06:51:38.803Z,100476.66
2022-12-26T06:54:05.345Z,100485.34
2022-12-26T06:56:32.738Z,100477.50
2022-12-26T06:59:04.277Z,100473.16
2022-12-26T07:01:34.071Z,100467.13
2022-12-26T07:04:01.291Z,100479.16
2022-12-26T07:06:30.399Z,100498.31
2022-12-26T07:09:00.228Z,100495.69
2022-12-26T07:11:29.834Z,100499.19
2022-12-26T07:13:56.486Z,100508.63
2022-12-26T07:16:25.608Z,100526.03
2022-12-26T07:18:56.798Z,100515.56
2022-12-26T07:21:24.039Z,100520.81
2022-12-26T07:23:51.126Z,100520.81
2022-12-26T07:26:18.388Z,100523.38
2022-12-26T07:28:44.849Z,100530.38
2022-12-26T07:31:19.203Z,100527.78
2022-12-26T07:33:50.381Z,100526.06
2022-12-26T07:36:17.909Z,100543.50
2022-12-26T07:38:44.708Z,100548.75
2022-12-26T07:41:30.423Z,100553.06
2022-12-26T07:43:56.884Z,100549.59
2022-12-26T07:46:23.472Z,100557.44
2022-12-26T07:48:50.053Z,100553.97
2022-12-26T07:51:16.496Z,100563.56
2022-12-26T07:53:42.933Z,100566.16
2022-12-26T07:56:09.550Z,100577.47
2022-12-26T07:58:36.019Z,100580.94
2022-12-26T08:01:03.972Z,100575.72
2022-12-26T08:03:30.651Z,100574.84
2022-12-26T08:05:57.688Z,100570.44
2022-12-26T08:08:24.260Z,100563.47
2022-12-26T08:11:02.478Z,100563.47
2022-12-26T08:13:30.537Z,100577.41
2022-12-26T08:15:57.782Z,100578.22
2022-12-26T08:18:25.421Z,100561.69
2022-12-26T08:20:52.872Z,100549.53
2022-12-26T08:23:19.361Z,100564.38
2022-12-26T08:25:45.811Z,100582.69
2022-12-26T08:28:12.384Z,100586.16
2022-12-26T08:30:41.080Z,100590.53
2022-12-26T08:33:09.032Z,100588.78
2022-12-26T08:35:36.639Z,100585.31
2022-12-26T08:38:03.522Z,100594.88
2022-12-26T08:40:42.677Z,100590.53
2022-12-26T08:43:32.060Z,100587.94
2022-12-26T08:46:05.798Z,100594.91
2022-12-26T08:48:32.651Z,100613.22
2022-12-26T08:51:11.241Z,100612.38
2022-12-26T08:53:37.934Z,100608.91
2022-12-26T08:56:06.505Z,100622.00
2022-12-26T08:58:33.879Z,100617.63
2022-12-26T09:01:27.870Z,100604.56
2022-12-26T09:03:59.631Z,100614.16
2022-12-26T09:06:26.701Z,100622.03
2022-12-26T09:08:53.210Z,100621.19
2022-12-26T09:11:28.644Z,100633.41
2022-12-26T09:13:57.075Z,100615.91
2022-12-26T09:16:26.971Z,100623.66
2022-12-26T09:18:56.943Z,100625.41
2022-12-26T09:21:23.906Z,100633.22
2022-12-26T09:23:50.435Z,100633.09
2022-12-26T09:26:20.240Z,100634.84
2022-12-26T09:28:47.769Z,100636.59
2022-12-26T09:31:21.093Z,100630.50
2022-12-26T09:33:48.581Z,100647.09
2022-12-26T09:36:20.492Z,100644.44
2022-12-26T09:38:48.262Z,100646.16
2022-12-26T09:41:50.143Z,100658.38
2022-12-26T09:44:39.808Z,100664.53
2022-12-26T09:47:21.494Z,100669.72
2022-12-26T09:49:56.476Z,100680.88
2022-12-26T09:52:32.579Z,100680.88
2022-12-26T09:55:03.648Z,100677.25
2022-12-26T09:57:40.629Z,100694.69
2022-12-26T10:00:07.950Z,100678.19
2022-12-26T10:02:35.028Z,100681.66
2022-12-26T10:05:01.884Z,100691.22
2022-12-26T10:08:05.547Z,100674.72
2022-12-26T10:10:46.220Z,100677.31
2022-12-26T10:13:36.501Z,100667.69
2022-12-26T10:16:16.416Z,100671.97
2022-12-26T10:19:16.301Z,100663.31
2022-12-26T10:21:56.025Z,100665.13
2022-12-26T10:24:25.190Z,100662.44
2022-12-26T10:26:59.724Z,100668.50
2022-12-26T10:29:58.861Z,100665.72
2022-12-26T10:32:32.575Z,100665.75
2022-12-26T10:35:00.258Z,100648.31
2022-12-26T10:37:39.329Z,100660.53
2022-12-26T10:40:20.838Z,100656.16
2022-12-26T10:42:53.552Z,100654.34
2022-12-26T10:45:49.394Z,100660.47
2022-12-26T10:48:16.826Z,100658.81
2022-12-26T10:50:48.988Z,100656.22
2022-12-26T10:53:17.237Z,100661.34
2022-12-26T10:55:43.910Z,100657.00
2022-12-26T10:58:25.831Z,100666.53
2022-12-26T11:00:52.633Z,100666.53
2022-12-26T11:03:20.931Z,100666.56
2022-12-26T11:06:07.568Z,100667.53
2022-12-26T11:08:43.341Z,100671.81
2022-12-26T11:11:47.805Z,100672.69
2022-12-26T11:14:50.711Z,100669.13
2022-12-26T11:17:31.132Z,100662.16
2022-12-26T11:20:15.875Z,100670.91
2022-12-26T11:22:46.668Z,100665.66
2022-12-26T11:25:24.902Z,100667.41
2022-12-26T11:27:59.164Z,100665.63
2022-12-26T11:30:33.153Z,100669.91
2022-12-26T11:33:17.733Z,100666.34
2022-12-26T11:35:54.898Z,100658.50
2022-12-26T11:38:44.038Z,100668.19
2022-12-26T11:41:33.355Z,100676.06
2022-12-26T11:44:24.052Z,100664.66
2022-12-26T11:47:07.279Z,100659.44
2022-12-26T11:49:59.461Z,100655.88
2022-12-26T11:52:39.550Z,100655.09
2022-12-26T11:55:27.824Z,100657.59
2022-12-26T11:58:06.868Z,100658.56
2022-12-26T12:00:41.365Z,100661.28
2022-12-26T12:03:17.498Z,100672.91
2022-12-26T12:05:54.127Z,100687.13
2022-12-26T12:08:29.073Z,100669.19
2022-12-26T12:11:09.222Z,100678.13
2022-12-26T12:13:51.108Z,100677.38
2022-12-26T12:16:38.240Z,100664.38
2022-12-26T12:19:07.660Z,100664.31
2022-12-26T12:21:40.021Z,100658.16
2022-12-26T12:24:34.497Z,100644.22
2022-12-26T12:27:14.668Z,100648.56
2022-12-26T12:29:51.922Z,100657.28
2022-12-26T12:32:39.656Z,100667.69
2022-12-26T12:35:43.852Z,100661.56
2022-12-26T12:38:26.106Z,100671.16
2022-12-26T12:41:30.567Z,100675.47
2022-12-26T12:44:09.435Z,100658.94
2022-12-26T12:46:49.168Z,100672.00
2022-12-26T12:49:29.725Z,100669.41
2022-12-26T12:52:02.236Z,100670.34
2022-12-26T12:54:39.128Z,100675.59
2022-12-26T12:57:24.619Z,100669.59
2022-12-26T12:59:57.573Z,100661.81
2022-12-26T13:02:36.024Z,100672.38
2022-12-26T13:05:25.852Z,100665.38
2022-12-26T13:08:02.365Z,100675.00
2022-12-26T13:10:33.309Z,100665.44
2022-12-26T13:13:10.189Z,100676.81
2022-12-26T13:15:43.582Z,100677.69
2022-12-26T13:18:22.951Z,100688.09
2022-12-26T13:21:10.434Z,100700.31
2022-12-26T13:24:14.031Z,100713.78
2022-12-26T13:26:48.850Z,100714.91
2022-12-26T13:29:33.965Z,100721.16
2022-12-26T13:32:02.091Z,100711.66
2022-12-26T13:34:28.669Z,100718.69
2022-12-26T13:36:57.483Z,100719.56
2022-12-26T13:39:23.828Z,100722.19
2022-12-26T13:42:16.424Z,100730.03
2022-12-26T13:44:43.011Z,100735.31
2022-12-26T13:47:45.203Z,100723.97
2022-12-26T13:50:53.429Z,100739.66
2022-12-26T13:53:25.394Z,100730.03
2022-12-26T13:55:58.062Z,100735.28
2022-12-26T13:58:39.768Z,100730.97
2022-12-26T14:01:31.485Z,100734.47
2022-12-26T14:04:22.656Z,100745.78
2022-12-26T14:07:21.617Z,100744.03
2022-12-26T14:10:20.430Z,100746.66
2022-12-26T14:13:01.088Z,100761.44
2022-12-26T14:15:49.571Z,100752.72
2022-12-26T14:18:31.473Z,100758.81
2022-12-26T14:21:36.178Z,100767.53
2022-12-26T14:24:29.623Z,100761.47
2022-12-26T14:27:08.244Z,100768.44
2022-12-26T14:29:46.165Z,100780.59
2022-12-26T14:32:22.223Z,100788.44
2022-12-26T14:35:13.416Z,100796.25
2022-12-26T14:38:02.485Z,100798.00
2022-12-26T14:40:34.680Z,100810.19
2022-12-26T14:43:10.290Z,100803.25
2022-12-26T14:45:40.177Z,100819.78
2022-12-26T14:48:15.805Z,100814.59
2022-12-26T14:50:51.317Z,100818.91
2022-12-26T14:53:29.849Z,100820.66
2022-12-26T14:55:57.477Z,100815.47
2022-12-26T14:58:29.837Z,100819.00
2022-12-26T15:01:09.161Z,100826.00
2022-12-26T15:04:03.505Z,100829.47
2022-12-26T15:06:48.785Z,100831.25
2022-12-26T15:09:33.607Z,100840.84
2022-12-26T15:12:38.472Z,100841.75
2022-12-26T15:15:28.032Z,100852.19
2022-12-26T15:18:11.241Z,100842.66
2022-12-26T15:21:09.066Z,100852.22
2022-12-26T15:23:50.711Z,100848.72
2022-12-26T15:26:32.478Z,100847.88
2022-12-26T15:29:19.995Z,100851.38
2022-12-26T15:31:55.751Z,100863.53
2022-12-26T15:34:41.915Z,100867.00
2022-12-26T15:37:22.901Z,100876.56
2022-12-26T15:40:00.457Z,100873.13
2022-12-26T15:42:52.039Z,100904.38
2022-12-26T15:45:49.592Z,100915.66
2022-12-26T15:48:39.328Z,100926.97
2022-12-26T15:51:14.827Z,100927.00
2022-12-26T15:53:58.339Z,100941.75
2022-12-26T15:56:52.119Z,100951.31
2022-12-26T15:59:44.006Z,100947.84
2022-12-26T16:02:35.306Z,100949.59
2022-12-26T16:05:11.099Z,100956.53
2022-12-26T16:07:54.064Z,100953.94
2022-12-26T16:10:33.893Z,100953.91
2022-12-26T16:13:12.584Z,100960.84
2022-12-26T16:15:49.920Z,100964.34
2022-12-26T16:18:22.108Z,100973.00
2022-12-26T16:21:10.601Z,100975.59
2022-12-26T16:23:40.070Z,100977.34
2022-12-26T16:26:07.043Z,100984.25
2022-12-26T16:28:39.662Z,101003.34
2022-12-26T16:31:07.187Z,100998.97
2022-12-26T16:33:41.522Z,101000.72
2022-12-26T16:36:10.790Z,100993.78
2022-12-26T16:38:37.823Z,101009.38
2022-12-26T16:41:25.777Z,101003.28
2022-12-26T16:43:56.723Z,101014.56
2022-12-26T16:46:28.777Z,101017.16
2022-12-26T16:48:59.391Z,101026.66
2022-12-26T16:51:43.580Z,101035.34
2022-12-26T16:54:25.579Z,101030.13
2022-12-26T16:57:01.392Z,101037.06
2022-12-26T16:59:38.088Z,101044.84
2022-12-26T17:02:05.142Z,101035.31
2022-12-26T17:04:32.062Z,101044.81
2022-12-26T17:07:15.604Z,101047.41
2022-12-26T17:09:49.627Z,101059.50
2022-12-26T17:12:36.963Z,101068.09
2022-12-26T17:15:05.866Z,101073.31
2022-12-26T17:17:37.873Z,101075.00
2022-12-26T17:20:32.046Z,101094.03
2022-12-26T17:22:58.501Z,101085.38
2022-12-26T17:25:26.739Z,101085.28
2022-12-26T17:28:12.329Z,101092.22
2022-12-26T17:30:42.849Z,101094.81
2022-12-26T17:33:20.197Z,101084.38
2022-12-26T17:38:48.528Z,101096.44
2022-12-26T17:41:17.649Z,101105.94
2022-12-26T17:43:45.111Z,101105.03
2022-12-26T17:46:16.165Z,101105.81
2022-12-26T17:48:43.479Z,101124.00
2022-12-26T17:51:15.853Z,101116.13
2022-12-26T17:53:47.326Z,101123.03
2022-12-26T17:56:22.621Z,101123.00
2022-12-26T17:58:50.210Z,101124.72
2022-12-26T18:01:21.115Z,101148.06
2022-12-26T18:03:48.721Z,101148.88
2022-12-26T18:06:19.826Z,101146.19
2022-12-26T18:08:46.360Z,101157.41
2022-12-26T18:11:14.550Z,101166.03
2022-12-26T18:13:41.892Z,101156.53
2022-12-26T18:16:15.126Z,101160.78
2022-12-26T18:18:44.228Z,101159.94
2022-12-26T18:21:12.798Z,101162.44
2022-12-26T18:23:39.954Z,101176.25
2022-12-26T18:26:12.728Z,101184.03
2022-12-26T18:28:39.342Z,101180.56
2022-12-26T18:31:05.848Z,101192.66
2022-12-26T18:33:32.343Z,101196.03
2022-12-26T18:36:03.025Z,101203.81
2022-12-26T18:38:32.292Z,101207.25
2022-12-26T18:41:01.006Z,101212.44
2022-12-26T18:43:27.484Z,101216.72
2022-12-26T18:45:54.125Z,101216.69
2022-12-26T18:48:20.647Z,101211.47
2022-12-26T18:50:47.348Z,101226.19
2022-12-26T18:53:13.886Z,101233.03
2022-12-26T18:55:40.496Z,101232.13
2022-12-26T18:58:07.259Z,101234.72
2022-12-26T19:00:34.125Z,101237.28
2022-12-26T19:03:00.538Z,101238.06
2022-12-26T19:05:31.135Z,101251.06
2022-12-26T19:07:58.859Z,101263.13
2022-12-26T19:10:29.026Z,101263.97
2022-12-26T19:13:02.822Z,101263.09
2022-12-26T19:15:32.508Z,101269.19
2022-12-26T19:17:59.701Z,101263.13
2022-12-26T19:20:27.279Z,101281.25
2022-12-26T19:22:54.858Z,101279.41
2022-12-26T19:25:23.164Z,101289.69
2022-12-26T19:27:50.215Z,101291.41
2022-12-26T19:30:17.831Z,101293.13
2022-12-26T19:32:44.844Z,101296.53
2022-12-26T19:35:12.432Z,101294.81
2022-12-26T19:37:39.931Z,101303.34
2022-12-26T19:40:07.693Z,101296.44
2022-12-26T19:42:34.706Z,101308.53
2022-12-26T19:45:01.651Z,101315.44
2022-12-26T19:47:28.205Z,101317.06
2022-12-26T19:49:54.652Z,101322.25
2022-12-26T19:52:21.212Z,101330.75
2022-12-26T19:54:47.717Z,101332.53
2022-12-26T19:57:14.236Z,101340.34
2022-12-26T19:59:40.680Z,101336.91
2022-12-26T20:02:07.241Z,101340.22
2022-12-26T20:04:33.791Z,101341.03
2022-12-26T20:07:00.752Z,101341.97
2022-12-26T20:09:27.735Z,101349.75
2022-12-26T20:11:54.322Z,101352.25
2022-12-26T20:14:23.327Z,101358.28
2022-12-26T20:17:08.903Z,101365.91
2022-12-26T20:19:36.492Z,101365.84
2022-12-26T20:22:04.063Z,101371.88
2022-12-26T20:24:30.575Z,101382.22
2022-12-26T20:26:57.074Z,101384.06
2022-12-26T20:29:23.540Z,101376.31
2022-12-26T20:31:49.955Z,101379.78
2022-12-26T20:34:16.751Z,101380.69
2022-12-26T20:36:43.214Z,101383.06
2022-12-26T20:39:15.028Z,101380.41
2022-12-26T20:41:41.504Z,101380.25
2022-12-26T20:44:08.028Z,101392.28
2022-12-26T20:46:35.623Z,101388.09
2022-12-26T20:49:04.690Z,101397.69
2022-12-26T20:51:37.271Z,101403.66
2022-12-26T20:54:05.613Z,101406.22
2022-12-26T20:56:32.182Z,101409.69
2022-12-26T20:58:59.619Z,101403.66
2022-12-26T21:01:27.305Z,101401.91
2022-12-26T21:03:55.805Z,101412.13
2022-12-26T21:06:25.821Z,101413.66
2022-12-26T21:08:53.392Z,101410.16
2022-12-26T21:11:31.831Z,101413.69
2022-12-26T21:14:01.532Z,101414.59
2022-12-26T21:16:31.443Z,101411.94
2022-12-26T21:18:58.654Z,101418.97
2022-12-26T21:21:30.779Z,101419.84
2022-12-26T21:24:04.172Z,101424.28
2022-12-26T21:26:31.322Z,101420.84
2022-12-26T21:29:00.532Z,101420.03
2022-12-26T21:31:28.771Z,101427.78
2022-12-26T21:33:57.320Z,101427.84
2022-12-26T21:36:24.396Z,101431.28
2022-12-26T21:38:52.727Z,101431.25
2022-12-26T21:41:20.027Z,101429.63
2022-12-26T21:43:46.577Z,101433.84
2022-12-26T21:46:16.258Z,101438.16
2022-12-26T21:48:50.188Z,101434.72
2022-12-26T21:51:18.360Z,101430.44
2022-12-26T21:53:45.145Z,101437.34
2022-12-26T21:56:12.985Z,101444.34
2022-12-26T21:58:58.682Z,101444.41
2022-12-26T22:01:26.505Z,101450.47
2022-12-26T22:04:12.713Z,101448.72
2022-12-26T22:06:40.024Z,101454.72
2022-12-26T22:09:07.882Z,101446.91
2022-12-26T22:11:53.431Z,101454.59
2022-12-26T22:14:19.954Z,101463.19
2022-12-26T22:16:46.481Z,101465.00
2022-12-26T22:19:12.936Z,101464.97
2022-12-26T22:21:39.388Z,101477.91
2022-12-26T22:24:06.198Z,101479.63
2022-12-26T22:26:32.680Z,101482.91
2022-12-26T22:28:59.229Z,101483.72
2022-12-26T22:31:27.631Z,101480.28
2022-12-26T22:33:57.035Z,101487.13
2022-12-26T22:36:24.485Z,101491.38
2022-12-26T22:38:51.297Z,101480.22
2022-12-26T22:41:17.909Z,101495.81
2022-12-26T22:43:45.319Z,101500.13
2022-12-26T22:46:12.649Z,101488.03
2022-12-26T22:48:39.872Z,101504.47
2022-12-26T22:51:06.500Z,101493.25
2022-12-26T22:53:33.001Z,101505.44
2022-12-26T22:56:01.989Z,101506.19
2022-12-26T22:58:29.675Z,101504.50
2022-12-26T23:00:56.376Z,101501.88
2022-12-26T23:03:23.693Z,101507.91
2022-12-26T23:05:50.979Z,101513.91
2022-12-26T23:08:21.329Z,101505.34
2022-12-26T23:10:49.159Z,101499.28
2022-12-26T23:13:16.590Z,101508.72
2022-12-26T23:15:59.489Z,101509.47
2022-12-26T23:19:03.101Z,101516.34
2022-12-26T23:21:39.823Z,101519.66
2022-12-26T23:24:07.517Z,101520.53
2022-12-26T23:26:34.394Z,101526.53
2022-12-26T23:29:19.584Z,101522.94
2022-12-26T23:31:46.082Z,101526.47
2022-12-26T23:34:12.543Z,101526.63
2022-12-26T23:36:39.012Z,101525.00
2022-12-26T23:39:05.483Z,101525.91
2022-12-26T23:41:31.967Z,101527.72
2022-12-26T23:43:58.805Z,101526.00
2022-12-26T23:46:25.292Z,101535.50
2022-12-26T23:48:51.700Z,101526.00
2022-12-26T23:51:18.170Z,101538.16
2022-12-26T23:53:44.615Z,101536.38
2022-12-26T23:56:11.126Z,101537.25
2022-12-26T23:58:40.007Z,101535.50
